createdAt,value
2018-09-07T00:00:59.403Z,20.60
2018-09-07T00:03:28.477Z,20.60
2018-09-07T00:05:57.232Z,20.60
2018-09-07T00:08:26.266Z,20.50
2018-09-07T00:10:54.616Z,20.50
2018-09-07T00:13:23.109Z,20.50
2018-09-07T00:15:51.503Z,20.50
2018-09-07T00:18:19.943Z,20.50
2018-09-07T00:20:48.559Z,20.40
2018-09-07T00:23:16.935Z,20.50
2018-09-07T00:25:45.411Z,20.50
2018-09-07T00:28:13.816Z,20.40
2018-09-07T00:30:42.223Z,20.40
2018-09-07T00:33:10.576Z,20.40
2018-09-07T00:35:39.019Z,20.40
2018-09-07T00:38:07.412Z,20.40
2018-09-07T00:40:36.112Z,20.40
2018-09-07T00:43:04.875Z,20.40
2018-09-07T00:45:33.338Z,20.40
2018-09-07T00:48:01.670Z,20.40
2018-09-07T00:50:30.229Z,20.40
2018-09-07T00:52:58.749Z,20.40
2018-09-07T00:55:27.253Z,20.40
2018-09-07T00:57:55.767Z,20.40
2018-09-07T01:00:24.655Z,20.30
2018-09-07T01:02:53.207Z,20.30
2018-09-07T01:05:21.631Z,20.30
2018-09-07T01:07:50.140Z,20.30
2018-09-07T01:10:18.504Z,20.40
2018-09-07T01:12:46.942Z,20.30
2018-09-07T01:15:15.371Z,20.30
2018-09-07T01:17:43.777Z,20.30
2018-09-07T01:20:12.146Z,20.30
2018-09-07T01:22:40.561Z,20.30
2018-09-07T01:25:09.011Z,20.30
2018-09-07T01:27:37.394Z,20.30
2018-09-07T01:30:06.240Z,20.30
2018-09-07T01:32:34.606Z,20.30
2018-09-07T01:35:03.047Z,20.30
2018-09-07T01:37:36.718Z,20.30
2018-09-07T01:40:05.215Z,20.30
2018-09-07T01:42:33.714Z,20.30
2018-09-07T01:45:02.050Z,20.30
2018-09-07T01:47:30.404Z,20.30
2018-09-07T01:49:58.796Z,20.30
2018-09-07T01:52:27.195Z,20.30
2018-09-07T01:54:55.594Z,20.30
2018-09-07T01:57:24.081Z,20.30
2018-09-07T01:59:52.542Z,20.30
2018-09-07T02:02:21.040Z,20.30
2018-09-07T02:04:49.522Z,20.30
2018-09-07T02:07:17.907Z,20.30
2018-09-07T02:09:46.307Z,20.30
2018-09-07T02:12:14.824Z,20.30
2018-09-07T02:14:43.333Z,20.30
2018-09-07T02:17:11.895Z,20.30
2018-09-07T02:19:40.336Z,20.30
2018-09-07T02:22:08.793Z,20.30
2018-09-07T02:24:37.262Z,20.30
2018-09-07T02:27:05.643Z,20.30
2018-09-07T02:29:34.019Z,20.30
2018-09-07T02:32:02.380Z,20.30
2018-09-07T02:34:30.850Z,20.30
2018-09-07T02:36:59.421Z,20.20
2018-09-07T02:39:27.862Z,20.20
2018-09-07T02:41:56.496Z,20.20
2018-09-07T02:44:24.898Z,20.20
2018-09-07T02:46:53.276Z,20.20
2018-09-07T02:49:21.750Z,20.20
2018-09-07T02:51:50.222Z,20.20
2018-09-07T02:54:18.679Z,20.20
2018-09-07T02:56:47.047Z,20.20
2018-09-07T02:59:15.394Z,20.20
2018-09-07T03:01:44.851Z,20.20
2018-09-07T03:04:13.234Z,20.20
2018-09-07T03:06:41.633Z,20.20
2018-09-07T03:09:10.075Z,20.20
2018-09-07T03:11:38.478Z,20.20
2018-09-07T03:14:06.837Z,20.10
2018-09-07T03:16:35.207Z,20.10
2018-09-07T03:19:03.553Z,20.10
2018-09-07T03:21:31.947Z,20.10
2018-09-07T03:24:00.313Z,20.10
2018-09-07T03:26:28.785Z,20.10
2018-09-07T03:28:57.241Z,20.20
2018-09-07T03:31:25.702Z,20.20
2018-09-07T03:33:54.180Z,20.20
2018-09-07T03:36:22.546Z,20.20
2018-09-07T03:38:50.924Z,20.20
2018-09-07T03:41:19.371Z,20.20
2018-09-07T03:43:47.761Z,20.20
2018-09-07T03:46:16.265Z,20.10
2018-09-07T03:48:44.715Z,20.10
2018-09-07T03:51:13.064Z,20.10
2018-09-07T03:53:41.634Z,20.10
2018-09-07T03:56:10.051Z,20.10
2018-09-07T03:58:38.503Z,20.10
2018-09-07T04:01:06.836Z,20.10
2018-09-07T04:03:35.225Z,20.10
2018-09-07T04:06:03.582Z,20.10
2018-09-07T04:08:32.125Z,20.00
2018-09-07T04:11:00.631Z,20.00
2018-09-07T04:13:29.000Z,20.00
2018-09-07T04:15:57.350Z,19.90
2018-09-07T04:18:25.754Z,19.90
2018-09-07T04:20:54.217Z,19.90
2018-09-07T04:23:28.550Z,19.90
2018-09-07T04:25:56.885Z,19.80
2018-09-07T04:28:25.327Z,19.80
2018-09-07T04:30:53.735Z,19.80
2018-09-07T04:33:23.673Z,19.80
2018-09-07T04:35:52.115Z,19.80
2018-09-07T04:38:20.555Z,19.80
2018-09-07T04:40:48.925Z,19.70
2018-09-07T04:43:17.449Z,19.70
2018-09-07T04:45:46.047Z,19.70
2018-09-07T04:48:14.432Z,19.70
2018-09-07T04:50:42.950Z,19.70
2018-09-07T04:53:11.463Z,19.70
2018-09-07T04:55:39.881Z,19.80
2018-09-07T04:58:08.271Z,19.80
2018-09-07T05:00:37.547Z,19.70
2018-09-07T05:03:06.688Z,19.80
2018-09-07T05:05:35.098Z,19.80
2018-09-07T05:08:04.495Z,19.90
2018-09-07T05:10:32.873Z,19.90
2018-09-07T05:13:01.227Z,19.80
2018-09-07T05:15:29.726Z,19.80
2018-09-07T05:17:58.166Z,19.80
2018-09-07T05:20:26.535Z,19.90
2018-09-07T05:22:56.451Z,19.80
2018-09-07T05:25:24.985Z,19.90
2018-09-07T05:27:53.494Z,19.90
2018-09-07T05:30:21.850Z,19.90
2018-09-07T05:32:50.412Z,19.90
2018-09-07T05:35:18.899Z,19.90
2018-09-07T05:37:47.409Z,19.90
2018-09-07T05:40:15.940Z,19.90
2018-09-07T05:42:44.304Z,20.00
2018-09-07T05:45:12.809Z,20.00
2018-09-07T05:47:41.215Z,19.90
2018-09-07T05:50:09.674Z,20.00
2018-09-07T05:52:38.142Z,20.00
2018-09-07T05:55:06.540Z,20.00
2018-09-07T05:57:34.914Z,20.10
2018-09-07T06:00:03.374Z,20.10
2018-09-07T06:02:31.735Z,20.10
2018-09-07T06:05:02.122Z,20.10
2018-09-07T06:07:31.459Z,20.10
2018-09-07T06:10:00.111Z,20.10
2018-09-07T06:12:28.906Z,20.10
2018-09-07T06:14:57.313Z,20.10
2018-09-07T06:17:25.743Z,20.10
2018-09-07T06:19:54.263Z,20.10
2018-09-07T06:22:22.701Z,20.10
2018-09-07T06:24:51.413Z,20.10
2018-09-07T06:27:20.021Z,20.00
2018-09-07T06:29:48.606Z,20.00
2018-09-07T06:32:16.999Z,20.00
2018-09-07T06:34:45.533Z,20.00
2018-09-07T06:37:14.015Z,20.00
2018-09-07T06:39:42.519Z,20.00
2018-09-07T06:42:10.934Z,19.90
2018-09-07T06:44:39.457Z,19.90
2018-09-07T06:47:07.903Z,19.90
2018-09-07T06:49:36.276Z,19.90
2018-09-07T06:52:05.056Z,19.90
2018-09-07T06:54:33.481Z,19.90
2018-09-07T06:57:01.922Z,19.90
2018-09-07T06:59:30.579Z,19.90
2018-09-07T07:01:59.078Z,19.90
2018-09-07T07:04:27.596Z,20.00
2018-09-07T07:06:55.942Z,20.00
2018-09-07T07:09:24.381Z,19.90
2018-09-07T07:11:52.741Z,20.00
2018-09-07T07:14:21.189Z,20.00
2018-09-07T07:16:49.564Z,19.90
2018-09-07T07:19:18.091Z,20.00
2018-09-07T07:21:46.492Z,20.00
2018-09-07T07:24:14.942Z,20.00
2018-09-07T07:26:43.382Z,19.90
2018-09-07T07:29:11.754Z,19.90
2018-09-07T07:31:40.142Z,19.90
2018-09-07T07:34:08.535Z,19.90
2018-09-07T07:36:36.951Z,19.90
2018-09-07T07:39:07.144Z,20.00
2018-09-07T07:41:35.766Z,20.00
2018-09-07T07:44:04.239Z,20.00
2018-09-07T07:46:32.622Z,20.00
2018-09-07T07:49:00.985Z,20.10
2018-09-07T07:51:29.399Z,20.10
2018-09-07T07:53:57.910Z,20.20
2018-09-07T07:56:26.338Z,20.20
2018-09-07T07:58:54.736Z,20.30
2018-09-07T08:01:23.228Z,20.30
2018-09-07T08:03:51.662Z,20.30
2018-09-07T08:06:20.109Z,20.40
2018-09-07T08:08:48.691Z,20.40
2018-09-07T08:11:17.050Z,20.40
2018-09-07T08:13:45.561Z,20.50
2018-09-07T08:16:14.278Z,20.50
2018-09-07T08:18:42.571Z,20.60
2018-09-07T08:21:11.300Z,20.60
2018-09-07T08:23:39.816Z,20.60
2018-09-07T08:26:08.294Z,20.70
2018-09-07T08:28:36.687Z,20.70
2018-09-07T08:31:05.409Z,20.80
2018-09-07T08:33:33.881Z,20.80
2018-09-07T08:36:02.289Z,20.90
2018-09-07T08:38:30.760Z,20.90
2018-09-07T08:40:59.280Z,20.90
2018-09-07T08:43:27.716Z,20.90
2018-09-07T08:45:56.291Z,21.00
2018-09-07T08:48:31.770Z,21.00
2018-09-07T08:51:00.229Z,21.00
2018-09-07T08:53:28.686Z,21.00
2018-09-07T08:55:57.214Z,21.00
2018-09-07T08:58:25.658Z,21.00
2018-09-07T09:00:54.102Z,21.00
2018-09-07T09:03:22.471Z,21.00
2018-09-07T09:05:51.047Z,21.10
2018-09-07T09:08:19.598Z,21.10
2018-09-07T09:10:48.007Z,21.20
2018-09-07T09:13:16.421Z,21.20
2018-09-07T09:15:45.213Z,21.30
2018-09-07T09:18:13.709Z,21.30
2018-09-07T09:20:42.306Z,21.20
2018-09-07T09:23:10.671Z,21.30
2018-09-07T09:25:39.501Z,21.30
2018-09-07T09:28:08.009Z,21.30
2018-09-07T09:30:36.397Z,21.30
2018-09-07T09:33:05.350Z,21.30
2018-09-07T09:35:33.756Z,21.30
2018-09-07T09:38:02.274Z,21.30
2018-09-07T09:40:30.832Z,21.20
2018-09-07T09:42:59.357Z,21.20
2018-09-07T09:45:27.810Z,21.30
2018-09-07T09:47:56.286Z,21.20
2018-09-07T09:50:24.799Z,21.20
2018-09-07T09:52:53.401Z,21.30
2018-09-07T09:55:21.955Z,21.20
2018-09-07T09:57:50.455Z,21.30
2018-09-07T10:00:24.350Z,21.40
2018-09-07T10:02:54.452Z,21.50
2018-09-07T10:05:22.837Z,21.70
2018-09-07T10:07:51.373Z,21.80
2018-09-07T10:10:19.830Z,22.00
2018-09-07T10:12:48.356Z,22.00
2018-09-07T10:15:16.839Z,22.10
2018-09-07T10:17:45.222Z,22.20
2018-09-07T10:20:13.728Z,22.30
2018-09-07T10:22:42.199Z,22.30
2018-09-07T10:25:10.671Z,22.20
2018-09-07T10:27:39.074Z,22.20
2018-09-07T10:30:07.572Z,22.20
2018-09-07T10:32:36.001Z,22.20
2018-09-07T10:35:04.508Z,22.30
2018-09-07T10:37:32.922Z,22.30
2018-09-07T10:40:01.352Z,22.30
2018-09-07T10:42:29.782Z,22.30
2018-09-07T10:44:58.283Z,22.30
2018-09-07T10:47:27.242Z,22.30
2018-09-07T10:49:55.618Z,22.40
2018-09-07T10:52:24.009Z,22.50
2018-09-07T10:54:52.519Z,22.60
2018-09-07T10:57:21.012Z,22.70
2018-09-07T10:59:49.619Z,22.90
2018-09-07T11:02:17.985Z,23.10
2018-09-07T11:04:46.376Z,23.30
2018-09-07T11:07:14.777Z,23.50
2018-09-07T11:09:43.313Z,23.60
2018-09-07T11:12:11.632Z,23.80
2018-09-07T11:14:39.984Z,23.90
2018-09-07T11:17:08.773Z,23.90
2018-09-07T11:19:37.853Z,24.00
2018-09-07T11:22:06.244Z,24.00
2018-09-07T11:24:34.616Z,23.90
2018-09-07T11:27:03.069Z,23.80
2018-09-07T11:29:31.495Z,23.80
2018-09-07T11:31:59.884Z,23.90
2018-09-07T11:34:28.207Z,24.10
2018-09-07T11:36:56.796Z,24.20
2018-09-07T11:39:25.205Z,24.30
2018-09-07T11:41:53.670Z,24.50
2018-09-07T11:44:22.201Z,24.60
2018-09-07T11:46:49.893Z,24.60
2018-09-07T11:49:18.394Z,24.40
2018-09-07T11:51:47.325Z,24.20
2018-09-07T11:54:16.295Z,24.10
2018-09-07T11:56:44.733Z,24.00
2018-09-07T11:59:13.157Z,24.00
2018-09-07T12:01:41.637Z,24.10
2018-09-07T12:04:10.350Z,24.20
2018-09-07T12:06:38.902Z,24.30
2018-09-07T12:09:08.778Z,24.30
2018-09-07T12:11:37.249Z,24.20
2018-09-07T12:14:05.628Z,24.10
2018-09-07T12:16:34.100Z,24.10
2018-09-07T12:19:02.457Z,24.30
2018-09-07T12:21:30.877Z,24.60
2018-09-07T12:23:59.289Z,24.60
2018-09-07T12:26:27.783Z,24.70
2018-09-07T12:28:56.390Z,24.80
2018-09-07T12:31:24.937Z,25.00
2018-09-07T12:33:53.486Z,25.20
2018-09-07T12:36:22.022Z,25.10
2018-09-07T12:38:50.517Z,25.00
2018-09-07T12:41:20.216Z,24.80
2018-09-07T12:43:48.683Z,24.70
2018-09-07T12:46:17.315Z,24.60
2018-09-07T12:48:45.258Z,24.50
2018-09-07T12:51:13.111Z,24.30
2018-09-07T12:53:40.984Z,24.10
2018-09-07T12:56:08.789Z,23.80
2018-09-07T12:58:36.492Z,23.60
2018-09-07T13:01:04.240Z,23.40
2018-09-07T13:03:31.913Z,23.30
2018-09-07T13:06:00.275Z,23.10
2018-09-07T13:08:28.782Z,23.00
2018-09-07T13:10:57.429Z,22.80
2018-09-07T13:13:25.857Z,22.80
2018-09-07T13:15:54.282Z,22.80
2018-09-07T13:18:22.708Z,22.70
2018-09-07T13:20:51.207Z,22.70
2018-09-07T13:23:19.569Z,22.70
2018-09-07T13:25:48.036Z,22.70
2018-09-07T13:28:16.586Z,22.70
2018-09-07T13:30:45.054Z,22.60
2018-09-07T13:33:13.543Z,22.60
2018-09-07T13:35:41.948Z,22.60
2018-09-07T13:38:10.374Z,22.70
2018-09-07T13:40:38.835Z,22.80
2018-09-07T13:43:07.185Z,22.90
2018-09-07T13:45:35.574Z,23.20
2018-09-07T13:48:04.158Z,23.50
2018-09-07T13:50:32.588Z,23.80
2018-09-07T13:53:01.205Z,24.00
2018-09-07T13:55:29.617Z,24.20
2018-09-07T13:57:58.125Z,24.20
2018-09-07T14:00:26.573Z,24.30
2018-09-07T14:02:55.054Z,24.40
2018-09-07T14:05:23.409Z,24.50
2018-09-07T14:07:51.856Z,24.70
2018-09-07T14:10:20.308Z,24.80
2018-09-07T14:12:48.828Z,24.80
2018-09-07T14:15:17.166Z,24.90
2018-09-07T14:17:45.566Z,25.00
2018-09-07T14:20:13.944Z,25.10
2018-09-07T14:22:42.358Z,25.20
2018-09-07T14:25:10.761Z,25.30
2018-09-07T14:27:39.322Z,25.20
2018-09-07T14:30:07.802Z,25.20
2018-09-07T14:32:36.413Z,25.20
2018-09-07T14:35:05.210Z,25.30
2018-09-07T14:37:33.604Z,25.30
2018-09-07T14:40:02.217Z,25.30
2018-09-07T14:42:30.685Z,25.40
2018-09-07T14:44:59.157Z,25.50
2018-09-07T14:47:27.507Z,25.50
2018-09-07T14:49:55.909Z,25.50
2018-09-07T14:52:24.376Z,25.40
2018-09-07T14:54:53.023Z,25.40
2018-09-07T14:57:21.114Z,25.30
2018-09-07T14:59:49.548Z,25.30
2018-09-07T15:02:18.023Z,25.30
2018-09-07T15:04:46.407Z,25.30
2018-09-07T15:07:14.934Z,25.20
2018-09-07T15:09:43.313Z,25.20
2018-09-07T15:12:11.666Z,25.20
2018-09-07T15:14:40.027Z,25.20
2018-09-07T15:17:08.493Z,25.10
2018-09-07T15:19:36.850Z,25.00
2018-09-07T15:22:07.396Z,25.00
2018-09-07T15:24:35.867Z,24.90
2018-09-07T15:27:04.349Z,24.90
2018-09-07T15:29:32.747Z,24.90
2018-09-07T15:32:01.126Z,25.00
2018-09-07T15:34:29.575Z,25.00
2018-09-07T15:36:58.560Z,25.00
2018-09-07T15:39:26.991Z,25.00
2018-09-07T15:41:55.384Z,24.90
2018-09-07T15:44:23.820Z,24.90
2018-09-07T15:46:52.414Z,24.80
2018-09-07T15:49:21.097Z,24.80
2018-09-07T15:51:49.610Z,24.80
2018-09-07T15:54:17.964Z,24.80
2018-09-07T15:56:46.397Z,24.80
2018-09-07T15:59:14.836Z,24.70
2018-09-07T16:01:43.245Z,24.60
2018-09-07T16:04:11.838Z,24.50
2018-09-07T16:06:40.238Z,24.40
2018-09-07T16:09:09.534Z,24.30
2018-09-07T16:11:38.125Z,24.20
2018-09-07T16:14:06.670Z,24.10
2018-09-07T16:16:35.073Z,24.10
2018-09-07T16:19:03.537Z,24.10
2018-09-07T16:21:31.978Z,24.10
2018-09-07T16:24:00.481Z,24.10
2018-09-07T16:26:28.835Z,24.00
2018-09-07T16:28:57.338Z,23.90
2018-09-07T16:31:25.655Z,23.90
2018-09-07T16:33:54.102Z,23.80
2018-09-07T16:36:22.550Z,23.60
2018-09-07T16:38:50.958Z,23.40
2018-09-07T16:41:19.313Z,23.20
2018-09-07T16:43:47.691Z,23.10
2018-09-07T16:46:16.150Z,23.00
2018-09-07T16:48:44.474Z,22.90
2018-09-07T16:51:13.171Z,22.90
2018-09-07T16:53:41.705Z,22.90
2018-09-07T16:56:10.111Z,22.80
2018-09-07T16:58:38.582Z,22.70
2018-09-07T17:01:07.102Z,22.70
2018-09-07T17:03:35.563Z,22.60
2018-09-07T17:06:03.958Z,22.50
2018-09-07T17:08:32.425Z,22.40
2018-09-07T17:11:00.957Z,22.30
2018-09-07T17:13:29.467Z,22.30
2018-09-07T17:15:57.962Z,22.30
2018-09-07T17:18:26.401Z,22.20
2018-09-07T17:20:54.933Z,22.20
2018-09-07T17:23:23.325Z,22.20
2018-09-07T17:25:51.919Z,22.20
2018-09-07T17:28:20.405Z,22.10
2018-09-07T17:30:48.905Z,22.10
2018-09-07T17:33:17.464Z,22.10
2018-09-07T17:35:45.898Z,22.00
2018-09-07T17:38:14.374Z,22.00
2018-09-07T17:40:42.882Z,22.00
2018-09-07T17:43:11.364Z,22.00
2018-09-07T17:45:39.785Z,21.90
2018-09-07T17:48:08.313Z,21.90
2018-09-07T17:50:36.718Z,21.90
2018-09-07T17:53:05.286Z,21.80
2018-09-07T17:55:33.858Z,21.80
2018-09-07T17:58:02.267Z,21.80
2018-09-07T18:00:30.694Z,21.80
2018-09-07T18:02:59.073Z,21.80
2018-09-07T18:05:30.832Z,21.70
2018-09-07T18:07:59.238Z,21.70
2018-09-07T18:10:27.711Z,21.70
2018-09-07T18:12:56.105Z,21.70
2018-09-07T18:15:24.551Z,21.60
2018-09-07T18:17:52.915Z,21.60
2018-09-07T18:20:21.419Z,21.60
2018-09-07T18:22:49.797Z,21.50
2018-09-07T18:25:18.253Z,21.50
2018-09-07T18:27:46.633Z,21.50
2018-09-07T18:30:15.058Z,21.50
2018-09-07T18:32:43.649Z,21.40
2018-09-07T18:35:12.334Z,21.40
2018-09-07T18:37:40.611Z,21.40
2018-09-07T18:40:09.049Z,21.40
2018-09-07T18:42:37.426Z,21.30
2018-09-07T18:45:06.066Z,21.30
2018-09-07T18:47:34.487Z,21.20
2018-09-07T18:50:02.984Z,21.10
2018-09-07T18:52:31.429Z,21.10
2018-09-07T18:55:00.047Z,21.10
2018-09-07T18:57:28.633Z,21.00
2018-09-07T18:59:57.011Z,20.90
2018-09-07T19:02:25.545Z,20.90
2018-09-07T19:04:54.025Z,20.90
2018-09-07T19:07:22.701Z,20.90
2018-09-07T19:09:51.190Z,21.00
2018-09-07T19:12:19.646Z,21.00
2018-09-07T19:14:48.199Z,21.00
2018-09-07T19:17:16.742Z,21.00
2018-09-07T19:19:45.181Z,20.90
2018-09-07T19:22:13.805Z,21.00
2018-09-07T19:24:42.309Z,20.90
2018-09-07T19:27:10.714Z,20.90
2018-09-07T19:29:39.119Z,20.80
2018-09-07T19:32:07.860Z,20.80
2018-09-07T19:34:36.271Z,20.80
2018-09-07T19:37:04.853Z,20.80
2018-09-07T19:39:33.342Z,20.80
2018-09-07T19:42:01.913Z,20.80
2018-09-07T19:44:30.412Z,20.70
2018-09-07T19:46:58.988Z,20.70
2018-09-07T19:49:27.453Z,20.70
2018-09-07T19:51:56.441Z,20.70
2018-09-07T19:54:25.053Z,20.70
2018-09-07T19:56:53.573Z,20.60
2018-09-07T19:59:22.046Z,20.60
2018-09-07T20:01:50.445Z,20.60
2018-09-07T20:04:19.052Z,20.50
2018-09-07T20:06:47.786Z,20.50
2018-09-07T20:09:16.607Z,20.50
2018-09-07T20:11:45.199Z,20.40
2018-09-07T20:14:13.907Z,20.40
2018-09-07T20:16:42.386Z,20.40
2018-09-07T20:19:10.991Z,20.30
2018-09-07T20:21:39.438Z,20.40
2018-09-07T20:24:07.952Z,20.30
2018-09-07T20:26:36.534Z,20.40
2018-09-07T20:29:04.933Z,20.40
2018-09-07T20:31:33.476Z,20.30
2018-09-07T20:34:02.002Z,20.30
2018-09-07T20:36:30.460Z,20.30
2018-09-07T20:38:58.916Z,20.30
2018-09-07T20:41:27.384Z,20.30
2018-09-07T20:43:55.838Z,20.20
2018-09-07T20:46:24.332Z,20.20
2018-09-07T20:48:52.891Z,20.10
2018-09-07T20:51:21.387Z,20.10
2018-09-07T20:53:49.860Z,20.10
2018-09-07T20:56:18.310Z,20.10
2018-09-07T20:58:46.702Z,20.00
2018-09-07T21:01:15.255Z,19.90
2018-09-07T21:03:43.750Z,19.80
2018-09-07T21:06:12.376Z,19.70
2018-09-07T21:08:42.175Z,19.60
2018-09-07T21:11:11.894Z,19.50
2018-09-07T21:13:40.441Z,19.40
2018-09-07T21:16:08.947Z,19.40
2018-09-07T21:18:37.432Z,19.30
2018-09-07T21:21:06.349Z,19.30
2018-09-07T21:23:34.897Z,19.20
2018-09-07T21:26:03.346Z,19.10
2018-09-07T21:28:31.811Z,19.10
2018-09-07T21:31:00.246Z,19.00
2018-09-07T21:33:29.332Z,19.00
2018-09-07T21:35:57.679Z,19.00
2018-09-07T21:38:26.164Z,18.90
2018-09-07T21:40:54.801Z,18.90
2018-09-07T21:43:23.190Z,18.90
2018-09-07T21:45:51.780Z,18.90
2018-09-07T21:48:20.301Z,19.00
2018-09-07T21:50:48.806Z,18.90
2018-09-07T21:53:17.281Z,18.90
2018-09-07T21:55:45.736Z,18.80
2018-09-07T21:58:14.482Z,18.80
2018-09-07T22:00:42.953Z,18.80
2018-09-07T22:03:11.467Z,18.70
2018-09-07T22:05:39.948Z,18.70
2018-09-07T22:08:08.477Z,18.70
2018-09-07T22:10:37.153Z,18.60
2018-09-07T22:13:05.882Z,18.60
2018-09-07T22:15:34.291Z,18.60
2018-09-07T22:18:02.821Z,18.60
2018-09-07T22:20:31.397Z,18.50
2018-09-07T22:22:59.851Z,18.50
2018-09-07T22:25:28.377Z,18.50
2018-09-07T22:27:56.875Z,18.40
2018-09-07T22:30:25.413Z,18.40
2018-09-07T22:32:53.836Z,18.40
2018-09-07T22:35:22.236Z,18.30
2018-09-07T22:37:50.666Z,18.30
2018-09-07T22:40:19.239Z,18.40
2018-09-07T22:42:47.634Z,18.30
2018-09-07T22:45:16.136Z,18.30
2018-09-07T22:47:44.583Z,18.30
2018-09-07T22:50:13.042Z,18.30
2018-09-07T22:52:41.488Z,18.20
2018-09-07T22:55:09.932Z,18.20
2018-09-07T22:57:38.382Z,18.10
2018-09-07T23:00:06.954Z,18.10
2018-09-07T23:02:35.427Z,18.10
2018-09-07T23:05:04.043Z,18.00
2018-09-07T23:07:32.477Z,18.00
2018-09-07T23:10:01.008Z,18.00
2018-09-07T23:12:29.593Z,18.00
2018-09-07T23:14:57.981Z,18.00
2018-09-07T23:17:26.438Z,17.90
2018-09-07T23:19:54.975Z,17.90
2018-09-07T23:22:23.385Z,18.00
2018-09-07T23:24:51.808Z,17.90
2018-09-07T23:27:20.259Z,17.90
2018-09-07T23:29:48.825Z,17.90
2018-09-07T23:32:17.298Z,17.80
2018-09-07T23:34:45.665Z,17.80
2018-09-07T23:37:14.403Z,17.80
2018-09-07T23:39:42.946Z,17.80
2018-09-07T23:42:11.651Z,17.80
2018-09-07T23:44:40.166Z,17.80
2018-09-07T23:47:08.726Z,17.70
2018-09-07T23:49:37.075Z,17.70
2018-09-07T23:52:05.663Z,17.70
2018-09-07T23:54:34.070Z,17.70
2018-09-07T23:57:02.509Z,17.70
2018-09-07T23:59:31.095Z,17.70
